createdAt,value
2019-01-21T00:00:46.390Z,28.15
2019-01-21T00:01:44.509Z,28.16
2019-01-21T00:02:22.211Z,28.14
2019-01-21T00:02:59.058Z,28.14
2019-01-21T00:03:35.355Z,28.14
2019-01-21T00:04:11.896Z,28.13
2019-01-21T00:04:48.927Z,28.15
2019-01-21T00:05:25.193Z,28.16
2019-01-21T00:06:01.892Z,28.14
2019-01-21T00:06:38.150Z,28.17
2019-01-21T00:07:16.287Z,28.19
2019-01-21T00:07:53.536Z,28.22
2019-01-21T00:08:30.732Z,28.25
2019-01-21T00:09:09.354Z,28.26
2019-01-21T00:09:45.637Z,28.29
2019-01-21T00:10:22.671Z,28.28
2019-01-21T00:10:58.975Z,28.29
2019-01-21T00:11:35.376Z,28.30
2019-01-21T00:12:12.550Z,28.31
2019-01-21T00:12:49.387Z,28.32
2019-01-21T00:13:25.685Z,28.35
2019-01-21T00:14:02.789Z,28.36
2019-01-21T00:14:39.758Z,28.40
2019-01-21T00:15:16.716Z,28.42
2019-01-21T00:15:53.020Z,28.44
2019-01-21T00:16:30.078Z,28.47
2019-01-21T00:17:06.960Z,28.50
2019-01-21T00:17:45.265Z,28.52
2019-01-21T00:18:22.689Z,28.51
2019-01-21T00:18:59.908Z,28.53
2019-01-21T00:19:36.684Z,28.58
2019-01-21T00:20:13.076Z,28.60
2019-01-21T00:20:50.026Z,28.62
2019-01-21T00:21:26.280Z,28.66
2019-01-21T00:22:03.076Z,28.70
2019-01-21T00:22:40.203Z,28.71
2019-01-21T00:23:19.607Z,28.75
2019-01-21T00:23:55.923Z,28.77
2019-01-21T00:24:33.152Z,28.79
2019-01-21T00:25:10.045Z,28.79
2019-01-21T00:25:47.319Z,28.79
2019-01-21T00:26:23.993Z,28.80
2019-01-21T00:27:01.222Z,28.82
2019-01-21T00:27:37.432Z,28.83
2019-01-21T00:28:13.908Z,28.88
2019-01-21T00:28:50.896Z,28.89
2019-01-21T00:29:26.989Z,28.90
2019-01-21T00:30:04.270Z,28.89
2019-01-21T00:30:41.696Z,28.92
2019-01-21T00:31:18.662Z,28.95
2019-01-21T00:31:55.540Z,28.99
2019-01-21T00:32:32.718Z,29.01
2019-01-21T00:33:09.215Z,29.03
2019-01-21T00:33:46.366Z,29.04
2019-01-21T00:34:23.593Z,29.06
2019-01-21T00:35:00.504Z,29.06
2019-01-21T00:35:37.492Z,29.07
2019-01-21T00:36:14.738Z,29.10
2019-01-21T00:36:51.085Z,29.13
2019-01-21T00:37:27.586Z,29.13
2019-01-21T00:38:04.775Z,29.17
2019-01-21T00:38:41.909Z,29.18
2019-01-21T00:39:18.119Z,29.21
2019-01-21T00:39:55.419Z,29.21
2019-01-21T00:40:33.225Z,29.23
2019-01-21T00:41:11.742Z,29.26
2019-01-21T00:41:48.143Z,29.22
2019-01-21T00:42:25.524Z,29.29
2019-01-21T00:43:01.904Z,29.29
2019-01-21T00:43:38.312Z,29.32
2019-01-21T00:44:15.525Z,29.34
2019-01-21T00:44:52.709Z,29.37
2019-01-21T00:45:30.098Z,29.39
2019-01-21T00:46:06.851Z,29.42
2019-01-21T00:46:43.705Z,29.45
2019-01-21T00:47:19.942Z,29.53
2019-01-21T00:47:56.256Z,29.53
2019-01-21T00:48:33.198Z,29.61
2019-01-21T00:49:09.769Z,29.61
2019-01-21T00:49:46.636Z,29.57
2019-01-21T00:50:23.371Z,29.68
2019-01-21T00:51:00.371Z,29.69
2019-01-21T00:51:36.870Z,29.71
2019-01-21T00:52:13.619Z,29.78
2019-01-21T00:52:50.664Z,29.79
2019-01-21T00:53:26.878Z,29.77
2019-01-21T00:54:03.805Z,29.77
2019-01-21T00:54:41.238Z,29.83
2019-01-21T00:55:17.691Z,29.86
2019-01-21T00:55:54.762Z,29.91
2019-01-21T00:56:32.571Z,29.93
2019-01-21T00:57:08.940Z,29.95
2019-01-21T00:57:45.219Z,29.95
2019-01-21T00:58:22.297Z,30.01
2019-01-21T00:58:58.438Z,30.00
2019-01-21T00:59:35.302Z,30.00
2019-01-21T01:00:15.493Z,30.00
2019-01-21T01:00:51.578Z,30.00
2019-01-21T01:01:27.962Z,30.00
2019-01-21T01:02:04.693Z,30.08
2019-01-21T01:02:40.946Z,30.10
2019-01-21T01:03:18.029Z,30.10
2019-01-21T01:03:54.372Z,30.17
2019-01-21T01:04:31.234Z,30.17
2019-01-21T01:05:08.385Z,30.16
2019-01-21T01:05:44.505Z,30.18
2019-01-21T01:06:20.769Z,30.29
2019-01-21T01:06:57.193Z,30.29
2019-01-21T01:07:34.350Z,30.32
2019-01-21T01:08:10.476Z,30.37
2019-01-21T01:08:47.172Z,30.39
2019-01-21T01:09:24.082Z,30.44
2019-01-21T01:10:00.309Z,30.44
2019-01-21T01:10:36.978Z,30.42
2019-01-21T01:11:13.829Z,30.36
2019-01-21T01:11:50.222Z,30.43
2019-01-21T01:12:26.959Z,30.46
2019-01-21T01:13:03.942Z,30.44
2019-01-21T01:13:42.705Z,30.44
2019-01-21T01:14:20.644Z,30.51
2019-01-21T01:14:57.160Z,30.59
2019-01-21T01:15:33.690Z,30.59
2019-01-21T01:16:11.033Z,30.61
2019-01-21T01:16:47.443Z,30.60
2019-01-21T01:17:24.217Z,30.60
2019-01-21T01:18:00.976Z,30.62
2019-01-21T01:18:38.147Z,30.62
2019-01-21T01:19:15.988Z,30.62
2019-01-21T01:19:54.066Z,30.66
2019-01-21T01:20:30.564Z,30.66
2019-01-21T01:21:07.628Z,30.73
2019-01-21T01:21:44.884Z,30.78
2019-01-21T01:22:21.152Z,30.78
2019-01-21T01:22:57.535Z,30.87
2019-01-21T01:23:34.357Z,30.87
2019-01-21T01:24:11.281Z,30.91
2019-01-21T01:24:47.598Z,30.88
2019-01-21T01:25:24.494Z,30.88
2019-01-21T01:26:01.332Z,30.97
2019-01-21T01:26:38.071Z,30.97
2019-01-21T01:27:14.947Z,31.07
2019-01-21T01:27:51.255Z,31.11
2019-01-21T01:28:35.410Z,31.17
2019-01-21T01:29:11.518Z,31.23
2019-01-21T01:29:48.737Z,31.28
2019-01-21T01:30:25.727Z,31.34
2019-01-21T01:31:01.899Z,31.38
2019-01-21T01:31:38.618Z,31.44
2019-01-21T01:32:15.191Z,31.47
2019-01-21T01:32:52.261Z,31.52
2019-01-21T01:33:29.125Z,31.54
2019-01-21T01:34:06.084Z,31.57
2019-01-21T01:34:42.465Z,31.60
2019-01-21T01:35:19.309Z,31.63
2019-01-21T01:35:56.275Z,31.61
2019-01-21T01:36:32.679Z,31.59
2019-01-21T01:37:09.120Z,31.56
2019-01-21T01:37:46.149Z,31.57
2019-01-21T01:38:23.164Z,31.62
2019-01-21T01:38:59.926Z,31.63
2019-01-21T01:39:36.790Z,31.66
2019-01-21T01:40:18.333Z,31.67
2019-01-21T01:40:55.457Z,31.70
2019-01-21T01:41:31.891Z,31.75
2019-01-21T01:42:08.569Z,31.78
2019-01-21T01:42:45.572Z,31.83
2019-01-21T01:43:22.172Z,31.85
2019-01-21T01:43:59.354Z,31.87
2019-01-21T01:44:36.153Z,31.88
2019-01-21T01:45:15.307Z,31.88
2019-01-21T01:45:51.562Z,31.88
2019-01-21T01:46:28.116Z,31.85
2019-01-21T01:47:04.603Z,31.87
2019-01-21T01:47:44.957Z,31.86
2019-01-21T01:48:19.689Z,31.87
2019-01-21T01:48:56.906Z,31.87
2019-01-21T01:49:33.280Z,31.84
2019-01-21T01:50:10.163Z,31.84
2019-01-21T01:50:47.158Z,31.82
2019-01-21T01:51:23.919Z,31.80
2019-01-21T01:52:00.838Z,31.80
2019-01-21T01:52:37.857Z,31.77
2019-01-21T01:53:14.243Z,31.74
2019-01-21T01:53:50.900Z,31.66
2019-01-21T01:54:27.604Z,31.62
2019-01-21T01:55:03.974Z,31.59
2019-01-21T01:55:41.100Z,31.55
2019-01-21T01:56:17.928Z,31.54
2019-01-21T01:56:54.123Z,31.54
2019-01-21T01:57:31.058Z,31.54
2019-01-21T01:58:08.236Z,31.53
2019-01-21T01:58:44.950Z,31.55
2019-01-21T01:59:21.730Z,31.54
2019-01-21T01:59:58.627Z,31.57
2019-01-21T02:00:34.979Z,31.60
2019-01-21T02:01:12.160Z,31.61
2019-01-21T02:01:48.869Z,31.62
2019-01-21T02:02:25.540Z,31.65
2019-01-21T02:03:01.960Z,31.65
2019-01-21T02:03:38.953Z,31.67
2019-01-21T02:04:15.462Z,31.68
2019-01-21T02:04:52.582Z,31.69
2019-01-21T02:05:29.899Z,31.66
2019-01-21T02:06:06.149Z,31.66
2019-01-21T02:06:42.277Z,31.66
2019-01-21T02:07:19.285Z,31.67
2019-01-21T02:07:55.661Z,31.64
2019-01-21T02:08:32.094Z,31.64
2019-01-21T02:09:10.025Z,31.63
2019-01-21T02:09:46.638Z,31.68
2019-01-21T02:10:23.165Z,31.70
2019-01-21T02:10:59.860Z,31.72
2019-01-21T02:11:36.325Z,31.75
2019-01-21T02:12:12.892Z,31.74
2019-01-21T02:12:49.933Z,31.71
2019-01-21T02:13:26.814Z,31.78
2019-01-21T02:14:03.269Z,31.82
2019-01-21T02:14:48.510Z,31.83
2019-01-21T02:15:25.222Z,31.86
2019-01-21T02:16:01.483Z,31.89
2019-01-21T02:16:38.440Z,31.87
2019-01-21T02:17:14.809Z,31.91
2019-01-21T02:17:52.403Z,31.93
2019-01-21T02:18:29.441Z,31.95
2019-01-21T02:19:05.839Z,31.92
2019-01-21T02:19:44.016Z,31.93
2019-01-21T02:20:20.683Z,31.93
2019-01-21T02:20:57.479Z,31.95
2019-01-21T02:21:35.165Z,31.93
2019-01-21T02:22:12.579Z,31.95
2019-01-21T02:22:52.105Z,32.01
2019-01-21T02:23:31.036Z,32.03
2019-01-21T02:24:09.659Z,32.07
2019-01-21T02:24:45.962Z,32.06
2019-01-21T02:25:25.044Z,32.04
2019-01-21T02:26:04.275Z,32.01
2019-01-21T02:27:24.966Z,32.05
2019-01-21T02:28:38.647Z,32.10
2019-01-21T02:29:27.837Z,32.17
2019-01-21T02:30:26.165Z,32.23
2019-01-21T02:31:39.225Z,32.28
2019-01-21T02:32:49.186Z,32.27
2019-01-21T02:34:10.091Z,32.26
2019-01-21T02:35:20.139Z,32.26
2019-01-21T02:36:29.359Z,32.29
2019-01-21T02:37:40.075Z,32.31
2019-01-21T02:39:08.157Z,32.32
2019-01-21T02:39:59.009Z,32.27
2019-01-21T02:41:01.005Z,32.24
2019-01-21T02:42:02.080Z,32.22
2019-01-21T02:43:07.135Z,32.27
2019-01-21T02:44:12.575Z,32.30
2019-01-21T02:45:18.384Z,32.35
2019-01-21T02:46:24.254Z,32.41
2019-01-21T02:47:15.712Z,32.41
2019-01-21T02:48:23.454Z,32.39
2019-01-21T02:49:32.827Z,32.37
2019-01-21T02:50:35.410Z,32.40
2019-01-21T02:52:22.071Z,32.41
2019-01-21T02:53:49.020Z,32.46
2019-01-21T02:54:56.099Z,32.48
2019-01-21T02:55:54.360Z,32.49
2019-01-21T02:56:59.049Z,32.46
2019-01-21T02:58:15.456Z,32.50
2019-01-21T02:59:27.714Z,32.59
2019-01-21T03:00:44.231Z,32.67
2019-01-21T03:02:06.505Z,32.67
2019-01-21T03:03:07.152Z,32.70
2019-01-21T03:04:01.757Z,32.75
2019-01-21T03:05:22.855Z,32.82
2019-01-21T03:06:29.490Z,32.79
2019-01-21T03:07:28.186Z,32.86
2019-01-21T03:08:37.213Z,32.87
2019-01-21T03:09:54.329Z,32.85
2019-01-21T03:11:10.429Z,32.85
2019-01-21T03:12:16.825Z,32.80
2019-01-21T03:13:37.267Z,32.88
2019-01-21T03:14:58.082Z,32.77
2019-01-21T03:16:07.363Z,32.90
2019-01-21T03:17:30.324Z,33.06
2019-01-21T03:19:08.904Z,33.09
2019-01-21T03:20:22.661Z,33.14
2019-01-21T03:21:49.361Z,33.17
2019-01-21T03:23:01.043Z,33.13
2019-01-21T03:24:15.680Z,33.02
2019-01-21T03:25:31.010Z,33.01
2019-01-21T03:26:46.878Z,33.03
2019-01-21T03:27:57.339Z,33.00
2019-01-21T03:29:08.905Z,33.05
2019-01-21T03:30:11.214Z,33.19
2019-01-21T03:31:23.694Z,33.28
2019-01-21T03:32:47.547Z,33.37
2019-01-21T03:33:45.141Z,33.40
2019-01-21T03:35:05.834Z,33.44
2019-01-21T03:36:16.893Z,33.48
2019-01-21T03:37:42.716Z,33.51
2019-01-21T03:39:08.531Z,33.55
2019-01-21T03:40:13.974Z,33.59
2019-01-21T03:41:11.504Z,33.69
2019-01-21T03:42:07.084Z,33.76
2019-01-21T03:43:05.739Z,33.80
2019-01-21T03:44:10.822Z,33.86
2019-01-21T03:45:22.474Z,33.91
2019-01-21T03:46:20.330Z,33.88
2019-01-21T03:47:32.701Z,33.96
2019-01-21T03:48:34.577Z,34.03
2019-01-21T03:49:21.351Z,34.09
2019-01-21T03:50:26.873Z,34.15
2019-01-21T03:51:46.190Z,34.18
2019-01-21T03:52:52.381Z,34.14
2019-01-21T03:53:56.125Z,34.23
2019-01-21T03:54:40.304Z,34.23
2019-01-21T03:55:18.696Z,34.22
2019-01-21T03:55:58.582Z,34.22
2019-01-21T03:57:29.583Z,34.24
2019-01-21T03:58:48.710Z,34.21
2019-01-21T03:59:57.034Z,34.22
2019-01-21T04:01:01.966Z,34.22
2019-01-21T04:02:37.291Z,34.13
2019-01-21T04:03:53.177Z,34.11
2019-01-21T04:05:06.441Z,33.99
2019-01-21T04:06:01.751Z,33.95
2019-01-21T04:06:51.233Z,34.00
2019-01-21T04:07:57.353Z,34.04
2019-01-21T04:09:24.863Z,34.05
2019-01-21T04:10:20.710Z,34.11
2019-01-21T04:11:23.210Z,34.21
2019-01-21T04:12:23.752Z,34.22
2019-01-21T04:13:32.693Z,34.23
2019-01-21T04:14:44.496Z,34.24
2019-01-21T04:16:06.821Z,34.28
2019-01-21T04:17:18.597Z,34.31
2019-01-21T04:18:29.382Z,34.38
2019-01-21T04:19:37.771Z,34.44
2019-01-21T04:20:42.423Z,34.48
2019-01-21T04:21:52.697Z,34.52
2019-01-21T04:23:06.594Z,34.51
2019-01-21T04:24:21.866Z,34.51
2019-01-21T04:25:42.987Z,34.45
2019-01-21T04:26:37.123Z,34.52
2019-01-21T04:28:03.777Z,34.57
2019-01-21T04:29:07.991Z,34.64
2019-01-21T04:30:21.162Z,34.67
2019-01-21T04:31:31.704Z,34.73
2019-01-21T04:32:28.142Z,34.72
2019-01-21T04:33:36.725Z,34.75
2019-01-21T04:34:50.855Z,34.79
2019-01-21T04:36:09.804Z,34.80
2019-01-21T04:37:29.887Z,34.84
2019-01-21T04:38:52.062Z,34.83
2019-01-21T04:39:59.195Z,34.84
2019-01-21T04:41:12.273Z,34.86
2019-01-21T04:42:20.444Z,34.89
2019-01-21T04:43:40.658Z,34.88
2019-01-21T04:44:48.407Z,34.91
2019-01-21T04:45:32.258Z,34.91
2019-01-21T04:46:43.443Z,34.92
2019-01-21T04:48:07.061Z,34.94
2019-01-21T04:49:26.093Z,34.93
2019-01-21T04:50:49.977Z,34.93
2019-01-21T04:52:15.144Z,34.93
2019-01-21T04:53:12.368Z,34.94
2019-01-21T04:54:41.580Z,34.91
2019-01-21T04:56:01.327Z,34.91
2019-01-21T04:57:23.337Z,34.94
2019-01-21T04:58:38.512Z,34.97
2019-01-21T04:59:54.944Z,35.00
2019-01-21T05:01:02.174Z,34.95
2019-01-21T05:01:57.974Z,34.94
2019-01-21T05:03:08.724Z,34.99
2019-01-21T05:04:29.489Z,35.03
2019-01-21T05:05:46.549Z,35.05
2019-01-21T05:06:49.829Z,35.11
2019-01-21T05:08:21.165Z,35.10
2019-01-21T05:09:14.169Z,35.07
2019-01-21T05:10:15.582Z,35.05
2019-01-21T05:11:31.061Z,35.01
2019-01-21T05:12:32.711Z,35.05
2019-01-21T05:13:38.739Z,35.08
2019-01-21T05:14:33.291Z,35.13
2019-01-21T05:16:02.001Z,35.20
2019-01-21T05:16:54.084Z,35.16
2019-01-21T05:18:21.928Z,35.26
2019-01-21T05:19:33.538Z,35.26
2019-01-21T05:20:42.864Z,35.31
2019-01-21T05:21:55.398Z,35.29
2019-01-21T05:22:49.753Z,35.23
2019-01-21T05:24:11.456Z,35.24
2019-01-21T05:25:36.385Z,35.26
2019-01-21T05:26:18.900Z,35.24
2019-01-21T05:27:35.416Z,35.27
2019-01-21T05:28:47.545Z,35.30
2019-01-21T05:29:36.732Z,35.34
2019-01-21T05:30:53.199Z,35.23
2019-01-21T05:31:45.378Z,35.19
2019-01-21T05:33:14.073Z,35.22
2019-01-21T05:34:16.011Z,35.23
2019-01-21T05:35:43.914Z,35.22
2019-01-21T05:36:52.318Z,35.25
2019-01-21T05:38:07.737Z,35.22
2019-01-21T05:38:56.217Z,35.22
2019-01-21T05:40:09.240Z,35.23
2019-01-21T05:41:20.884Z,35.27
2019-01-21T05:42:45.465Z,35.31
2019-01-21T05:44:03.985Z,35.33
2019-01-21T05:45:08.715Z,35.30
2019-01-21T05:46:16.508Z,35.32
2019-01-21T05:47:23.075Z,35.33
2019-01-21T05:48:48.913Z,35.34
2019-01-21T05:49:44.313Z,35.36
2019-01-21T05:50:55.740Z,35.34
2019-01-21T05:52:25.036Z,35.33
2019-01-21T05:53:50.221Z,35.30
2019-01-21T05:54:52.227Z,35.27
2019-01-21T05:56:18.238Z,35.21
2019-01-21T05:57:30.783Z,35.13
2019-01-21T05:58:47.647Z,34.97
2019-01-21T06:00:11.547Z,34.91
2019-01-21T06:01:27.513Z,34.89
2019-01-21T06:02:25.486Z,34.92
2019-01-21T06:03:25.560Z,34.89
2019-01-21T06:04:56.848Z,34.94
2019-01-21T06:06:02.378Z,34.93
2019-01-21T06:07:18.109Z,34.98
2019-01-21T06:08:46.522Z,35.05
2019-01-21T06:09:56.436Z,35.07
2019-01-21T06:10:53.891Z,35.04
2019-01-21T06:11:54.069Z,35.04
2019-01-21T06:13:05.584Z,35.05
2019-01-21T06:14:30.577Z,35.05
2019-01-21T06:15:24.156Z,35.01
2019-01-21T06:16:20.470Z,34.96
2019-01-21T06:17:36.049Z,34.96
2019-01-21T06:18:21.556Z,34.98
2019-01-21T06:19:19.308Z,35.02
2019-01-21T06:20:29.470Z,35.04
2019-01-21T06:21:52.808Z,35.07
2019-01-21T06:22:43.027Z,35.11
2019-01-21T06:23:43.658Z,35.07
2019-01-21T06:24:54.142Z,35.06
2019-01-21T06:26:19.316Z,35.03
2019-01-21T06:27:59.963Z,35.00
2019-01-21T06:29:08.534Z,35.03
2019-01-21T06:30:29.501Z,35.07
2019-01-21T06:31:40.338Z,35.11
2019-01-21T06:32:49.826Z,35.11
2019-01-21T06:33:52.363Z,35.10
2019-01-21T06:35:11.592Z,35.11
2019-01-21T06:36:15.543Z,35.15
2019-01-21T06:37:47.322Z,35.14
2019-01-21T06:39:11.388Z,35.18
2019-01-21T06:40:48.577Z,35.18
2019-01-21T06:42:03.867Z,35.20
2019-01-21T06:43:28.980Z,35.15
2019-01-21T06:44:28.679Z,35.18
2019-01-21T06:45:51.139Z,35.14
2019-01-21T06:46:47.149Z,35.09
2019-01-21T06:47:38.486Z,35.09
2019-01-21T06:48:47.107Z,35.12
2019-01-21T06:50:05.362Z,35.10
2019-01-21T06:51:21.521Z,35.04
2019-01-21T06:52:40.602Z,35.02
2019-01-21T06:53:48.317Z,35.00
2019-01-21T06:54:57.883Z,35.04
2019-01-21T06:55:59.908Z,35.04
2019-01-21T06:57:06.657Z,35.04
2019-01-21T06:58:10.241Z,35.01
2019-01-21T06:59:24.726Z,34.97
2019-01-21T07:00:23.776Z,35.00
2019-01-21T07:01:23.071Z,34.99
2019-01-21T07:02:49.144Z,34.97
2019-01-21T07:04:14.536Z,35.03
2019-01-21T07:05:28.443Z,35.00
2019-01-21T07:06:33.380Z,35.01
2019-01-21T07:07:53.306Z,35.05
2019-01-21T07:09:06.312Z,35.07
2019-01-21T07:10:11.123Z,35.10
2019-01-21T07:11:18.193Z,35.11
2019-01-21T07:12:39.294Z,35.10
2019-01-21T07:13:44.428Z,35.14
2019-01-21T07:15:06.861Z,35.10
2019-01-21T07:16:20.901Z,35.04
2019-01-21T07:17:28.965Z,34.98
2019-01-21T07:18:52.402Z,35.04
2019-01-21T07:20:14.932Z,35.11
2019-01-21T07:21:35.762Z,35.10
2019-01-21T07:22:38.453Z,35.14
2019-01-21T07:23:51.266Z,35.11
2019-01-21T07:24:39.825Z,35.09
2019-01-21T07:25:53.537Z,35.06
2019-01-21T07:27:04.932Z,35.09
2019-01-21T07:28:18.865Z,35.06
2019-01-21T07:29:37.021Z,35.10
2019-01-21T07:30:45.812Z,35.04
2019-01-21T07:31:47.159Z,34.99
2019-01-21T07:33:06.386Z,34.98
2019-01-21T07:33:55.963Z,34.94
2019-01-21T07:35:03.206Z,34.95
2019-01-21T07:36:22.832Z,34.98
2019-01-21T07:37:47.252Z,34.99
2019-01-21T07:38:47.603Z,35.04
2019-01-21T07:40:13.506Z,35.11
2019-01-21T07:41:51.270Z,35.13
2019-01-21T07:42:52.701Z,35.13
2019-01-21T07:44:05.156Z,35.12
2019-01-21T07:45:04.147Z,35.07
2019-01-21T07:46:08.942Z,35.07
2019-01-21T07:47:13.376Z,35.05
2019-01-21T07:48:17.880Z,35.05
2019-01-21T07:49:32.015Z,35.11
2019-01-21T07:50:38.884Z,35.15
2019-01-21T07:51:41.852Z,35.17
2019-01-21T07:53:00.611Z,35.16
2019-01-21T07:54:13.799Z,35.14
2019-01-21T07:55:27.880Z,35.12
2019-01-21T07:56:31.629Z,35.13
2019-01-21T07:57:40.174Z,35.15
2019-01-21T07:58:40.261Z,35.15
2019-01-21T08:00:06.641Z,35.09
2019-01-21T08:01:10.600Z,35.09
2019-01-21T08:02:28.058Z,35.06
2019-01-21T08:03:37.794Z,35.04
2019-01-21T08:04:57.569Z,35.04
2019-01-21T08:06:05.749Z,35.06
2019-01-21T08:06:58.726Z,35.05
2019-01-21T08:07:54.579Z,35.01
2019-01-21T08:08:47.447Z,34.99
2019-01-21T08:09:58.563Z,35.00
2019-01-21T08:11:03.998Z,35.03
2019-01-21T08:12:17.214Z,35.05
2019-01-21T08:13:37.060Z,35.09
2019-01-21T08:14:52.141Z,35.11
2019-01-21T08:16:11.045Z,35.13
2019-01-21T08:17:18.150Z,35.10
2019-01-21T08:18:36.497Z,35.12
2019-01-21T08:19:38.294Z,35.09
2019-01-21T08:20:40.946Z,35.11
2019-01-21T08:21:35.882Z,35.11
2019-01-21T08:23:01.990Z,35.15
2019-01-21T08:24:25.033Z,35.17
2019-01-21T08:25:44.699Z,35.19
2019-01-21T08:27:07.825Z,35.17
2019-01-21T08:28:12.340Z,35.16
2019-01-21T08:29:03.063Z,35.15
2019-01-21T08:30:12.634Z,35.15
2019-01-21T08:31:22.686Z,35.14
2019-01-21T08:32:13.885Z,35.13
2019-01-21T08:33:29.733Z,35.11
2019-01-21T08:34:42.966Z,35.08
2019-01-21T08:35:35.568Z,35.01
2019-01-21T08:36:39.912Z,35.00
2019-01-21T08:37:45.427Z,34.99
2019-01-21T08:38:35.642Z,34.98
2019-01-21T08:39:40.218Z,34.98
2019-01-21T08:40:34.814Z,34.96
2019-01-21T08:41:48.356Z,34.98
2019-01-21T08:43:11.358Z,34.98
2019-01-21T08:44:14.559Z,34.94
2019-01-21T08:45:46.776Z,34.91
2019-01-21T08:46:44.076Z,34.84
2019-01-21T08:47:34.000Z,34.82
2019-01-21T08:48:50.594Z,34.83
2019-01-21T08:49:58.347Z,34.86
2019-01-21T08:51:23.560Z,34.86
2019-01-21T08:52:55.916Z,34.87
2019-01-21T08:53:57.034Z,34.84
2019-01-21T08:55:09.395Z,34.82
2019-01-21T08:56:28.003Z,34.83
2019-01-21T08:57:30.607Z,34.78
2019-01-21T08:59:00.315Z,34.78
2019-01-21T09:00:19.386Z,34.77
2019-01-21T09:01:21.104Z,34.76
2019-01-21T09:02:33.647Z,34.76
2019-01-21T09:03:41.646Z,34.75
2019-01-21T09:04:53.138Z,34.76
2019-01-21T09:05:56.745Z,34.73
2019-01-21T09:07:00.757Z,34.69
2019-01-21T09:08:09.722Z,34.68
2019-01-21T09:09:10.348Z,34.67
2019-01-21T09:10:18.590Z,34.64
2019-01-21T09:11:21.163Z,34.63
2019-01-21T09:12:15.960Z,34.60
2019-01-21T09:13:22.259Z,34.57
2019-01-21T09:14:27.489Z,34.50
2019-01-21T09:15:59.314Z,34.47
2019-01-21T09:17:07.570Z,34.41
2019-01-21T09:18:03.000Z,34.35
2019-01-21T09:19:02.678Z,34.30
2019-01-21T09:20:10.661Z,34.26
2019-01-21T09:21:29.057Z,34.27
2019-01-21T09:22:55.145Z,34.24
2019-01-21T09:24:13.694Z,34.21
2019-01-21T09:25:29.977Z,34.21
2019-01-21T09:26:26.143Z,34.14
2019-01-21T09:27:15.959Z,34.12
2019-01-21T09:28:33.199Z,34.04
2019-01-21T09:29:54.057Z,34.06
2019-01-21T09:31:07.216Z,34.09
2019-01-21T09:32:29.725Z,33.96
2019-01-21T09:33:48.264Z,33.94
2019-01-21T09:34:52.202Z,33.88
2019-01-21T09:35:56.164Z,33.83
2019-01-21T09:36:59.689Z,33.77
2019-01-21T09:38:06.462Z,33.75
2019-01-21T09:39:21.287Z,33.74
2019-01-21T09:40:24.082Z,33.70
2019-01-21T09:41:14.054Z,33.67
2019-01-21T09:42:39.483Z,33.64
2019-01-21T09:43:43.852Z,33.62
2019-01-21T09:44:28.664Z,33.61
2019-01-21T09:45:41.563Z,33.55
2019-01-21T09:46:43.297Z,33.56
2019-01-21T09:47:16.601Z,33.53
2019-01-21T09:47:50.089Z,33.50
2019-01-21T09:48:24.382Z,33.48
2019-01-21T09:49:01.519Z,33.47
2019-01-21T09:49:43.575Z,33.45
2019-01-21T09:50:16.011Z,33.47
2019-01-21T09:50:53.397Z,33.46
2019-01-21T09:51:29.754Z,33.43
2019-01-21T09:52:09.250Z,33.44
2019-01-21T09:52:46.302Z,33.45
2019-01-21T09:53:22.608Z,33.44
2019-01-21T09:53:59.157Z,33.39
2019-01-21T09:54:36.907Z,33.38
2019-01-21T09:55:14.330Z,33.38
2019-01-21T09:55:52.791Z,33.35
2019-01-21T09:56:34.483Z,33.33
2019-01-21T09:57:17.455Z,33.32
2019-01-21T09:58:02.640Z,33.36
2019-01-21T09:58:40.249Z,33.35
2019-01-21T09:59:16.537Z,33.35
2019-01-21T10:00:07.395Z,33.33
2019-01-21T10:00:43.694Z,33.34
2019-01-21T10:01:20.562Z,33.31
2019-01-21T10:01:59.952Z,33.34
2019-01-21T10:02:50.971Z,33.37
2019-01-21T10:03:28.227Z,33.37
2019-01-21T10:04:05.360Z,33.38
2019-01-21T10:05:01.139Z,33.39
2019-01-21T10:05:38.412Z,33.39
2019-01-21T10:06:15.346Z,33.37
2019-01-21T10:07:12.319Z,33.37
2019-01-21T10:08:26.604Z,33.35
2019-01-21T10:09:55.372Z,33.29
2019-01-21T10:11:03.306Z,33.32
2019-01-21T10:12:02.947Z,33.28
2019-01-21T10:13:02.309Z,33.27
2019-01-21T10:14:24.503Z,33.25
2019-01-21T10:15:35.423Z,33.23
2019-01-21T10:16:47.082Z,33.24
2019-01-21T10:17:58.269Z,33.20
2019-01-21T10:19:21.236Z,33.20
2019-01-21T10:20:39.073Z,33.18
2019-01-21T10:22:05.651Z,33.15
2019-01-21T10:23:22.024Z,33.11
2019-01-21T10:24:40.368Z,33.08
2019-01-21T10:25:33.510Z,33.03
2019-01-21T10:26:34.501Z,32.97
2019-01-21T10:28:07.135Z,32.96
2019-01-21T10:29:16.387Z,32.90
2019-01-21T10:30:36.310Z,32.86
2019-01-21T10:31:59.231Z,32.83
2019-01-21T10:33:10.346Z,32.81
2019-01-21T10:34:28.123Z,32.83
2019-01-21T10:35:46.051Z,32.80
2019-01-21T10:37:16.284Z,32.77
2019-01-21T10:38:34.250Z,32.74
2019-01-21T10:40:02.131Z,32.71
2019-01-21T10:40:51.754Z,32.73
2019-01-21T10:41:44.739Z,32.67
2019-01-21T10:42:46.264Z,32.64
2019-01-21T10:44:00.230Z,32.66
2019-01-21T10:45:03.262Z,32.66
2019-01-21T10:46:36.652Z,32.64
2019-01-21T10:47:35.458Z,32.63
2019-01-21T10:48:42.526Z,32.61
2019-01-21T10:49:50.057Z,32.56
2019-01-21T10:51:26.455Z,32.54
2019-01-21T10:52:48.363Z,32.52
2019-01-21T10:54:00.262Z,32.48
2019-01-21T10:54:51.444Z,32.49
2019-01-21T10:55:50.471Z,32.45
2019-01-21T10:57:07.912Z,32.47
2019-01-21T10:58:02.383Z,32.44
2019-01-21T10:59:24.356Z,32.39
2019-01-21T11:00:47.586Z,32.35
2019-01-21T11:02:13.923Z,32.33
2019-01-21T11:03:40.309Z,32.29
2019-01-21T11:04:51.952Z,32.27
2019-01-21T11:06:12.071Z,32.25
2019-01-21T11:07:16.734Z,32.22
2019-01-21T11:08:27.149Z,32.18
2019-01-21T11:09:36.836Z,32.16
2019-01-21T11:11:05.496Z,32.20
2019-01-21T11:12:25.225Z,32.20
2019-01-21T11:13:23.137Z,32.21
2019-01-21T11:14:40.462Z,32.19
2019-01-21T11:15:34.295Z,32.17
2019-01-21T11:16:39.739Z,32.16
2019-01-21T11:18:04.052Z,32.12
2019-01-21T11:19:10.807Z,32.11
2019-01-21T11:20:16.177Z,32.08
2019-01-21T11:21:39.644Z,32.03
2019-01-21T11:22:27.212Z,32.01
2019-01-21T11:23:29.274Z,32.02
2019-01-21T11:24:50.903Z,32.02
2019-01-21T11:26:05.647Z,32.02
2019-01-21T11:27:19.066Z,32.01
2019-01-21T11:28:42.558Z,32.03
2019-01-21T11:30:06.302Z,32.03
2019-01-21T11:31:37.095Z,32.01
2019-01-21T11:32:52.325Z,31.98
2019-01-21T11:34:06.098Z,31.93
2019-01-21T11:35:07.471Z,31.94
2019-01-21T11:36:33.620Z,31.91
2019-01-21T11:37:33.862Z,31.91
2019-01-21T11:38:24.546Z,31.88
2019-01-21T11:39:25.250Z,31.86
2019-01-21T11:40:32.494Z,31.86
2019-01-21T11:41:58.328Z,31.87
2019-01-21T11:43:30.131Z,31.86
2019-01-21T11:44:26.791Z,31.88
2019-01-21T11:45:35.660Z,31.87
2019-01-21T11:46:44.067Z,31.86
2019-01-21T11:47:55.773Z,31.88
2019-01-21T11:49:00.790Z,31.89
2019-01-21T11:49:49.635Z,31.88
2019-01-21T11:51:18.111Z,31.91
2019-01-21T11:52:33.121Z,31.89
2019-01-21T11:54:05.102Z,31.87
2019-01-21T11:55:30.804Z,31.81
2019-01-21T11:56:50.133Z,31.75
2019-01-21T11:58:18.825Z,31.75
2019-01-21T11:59:13.774Z,31.71
2019-01-21T12:00:15.546Z,31.76
2019-01-21T12:01:34.568Z,31.75
2019-01-21T12:02:45.689Z,31.75
2019-01-21T12:03:53.864Z,31.76
2019-01-21T12:04:57.535Z,31.75
2019-01-21T12:05:48.208Z,31.75
2019-01-21T12:06:36.920Z,31.75
2019-01-21T12:07:57.985Z,31.76
2019-01-21T12:09:20.202Z,31.79
2019-01-21T12:10:25.454Z,31.80
2019-01-21T12:11:42.998Z,31.81
2019-01-21T12:12:49.872Z,31.84
2019-01-21T12:13:58.196Z,31.82
2019-01-21T12:15:07.087Z,31.80
2019-01-21T12:16:25.406Z,31.80
2019-01-21T12:17:24.318Z,31.81
2019-01-21T12:18:26.472Z,31.81
2019-01-21T12:19:13.977Z,31.80
2019-01-21T12:20:39.484Z,31.82
2019-01-21T12:21:52.024Z,31.81
2019-01-21T12:22:58.510Z,31.83
2019-01-21T12:23:58.938Z,31.82
2019-01-21T12:24:59.886Z,31.83
2019-01-21T12:25:44.273Z,31.83
2019-01-21T12:26:30.873Z,31.85
2019-01-21T12:27:44.638Z,31.86
2019-01-21T12:28:54.060Z,31.84
2019-01-21T12:30:04.773Z,31.85
2019-01-21T12:31:14.934Z,31.85
2019-01-21T12:32:21.643Z,31.86
2019-01-21T12:33:45.391Z,31.79
2019-01-21T12:34:58.097Z,31.86
2019-01-21T12:36:06.414Z,31.89
2019-01-21T12:37:07.537Z,31.89
2019-01-21T12:38:21.285Z,31.83
2019-01-21T12:39:31.447Z,31.86
2019-01-21T12:40:19.341Z,31.80
2019-01-21T12:41:43.758Z,31.78